Time;durP1;ratioP1;P1;durP2;ratioP2;P2;SDS_P1;SDS_P2;PMS_P1;PMS_P2;Temp;Humidity;BMP_temperature;BMP_pressure;BME280_temperature;BME280_humidity;BME280_pressure;Samples;Min_cycle;Max_cycle;Signal;HPM_P1;HPM_P2
2023/10/28 00:01:02;;;;;;;9.30;3.30;;;;;;;14.58;85.53;96530.27;106913;1263;61742;-36
2023/10/28 00:03:29;;;;;;;5.70;2.80;;;;;;;14.61;85.14;96532.48;106919;1260;59521;-36
2023/10/28 00:05:57;;;;;;;11.70;3.80;;;;;;;14.60;85.13;96517.36;106904;1260;73053;-37
2023/10/28 00:08:25;;;;;;;11.70;3.40;;;;;;;14.56;85.31;96508.25;106894;1260;66962;-35
2023/10/28 00:10:52;;;;;;;9.00;4.30;;;;;;;14.55;85.29;96515.55;106878;1263;73059;-35
2023/10/28 00:13:20;;;;;;;8.80;3.00;;;;;;;14.58;84.90;96507.91;106906;1262;61737;-35
2023/10/28 00:15:47;;;;;;;10.10;3.50;;;;;;;14.62;84.64;96507.27;106877;1266;59575;-35
2023/10/28 00:18:15;;;;;;;8.60;3.50;;;;;;;14.62;84.20;96509.80;106896;1267;73085;-36
2023/10/28 00:20:44;;;;;;;8.60;3.60;;;;;;;14.59;84.14;96504.27;106899;1262;66646;-36
2023/10/28 00:23:14;;;;;;;6.80;2.90;;;;;;;14.59;83.77;96488.40;106940;1261;72692;-35
2023/10/28 00:25:42;;;;;;;7.90;3.10;;;;;;;14.64;83.06;96482.27;106868;1262;60453;-35
2023/10/28 00:28:10;;;;;;;8.00;3.60;;;;;;;14.68;82.57;96478.18;106951;1263;60042;-36
2023/10/28 00:30:39;;;;;;;10.40;3.60;;;;;;;14.69;82.76;96481.27;106875;1261;71835;-36
2023/10/28 00:33:06;;;;;;;11.00;3.60;;;;;;;14.68;82.84;96467.58;106802;1260;67331;-36
2023/10/28 00:35:36;;;;;;;10.70;3.30;;;;;;;14.69;82.57;96464.83;106878;1262;72661;-35
2023/10/28 00:38:03;;;;;;;7.00;3.00;;;;;;;14.73;81.96;96471.83;106737;1260;61763;-36
2023/10/28 00:40:31;;;;;;;8.80;3.50;;;;;;;14.77;81.22;96468.70;106760;1268;60046;-36
2023/10/28 00:42:59;;;;;;;11.80;3.40;;;;;;;14.79;81.07;96465.72;106876;1260;71770;-36
2023/10/28 00:45:27;;;;;;;6.90;3.20;;;;;;;14.77;81.42;96458.48;106880;1262;66291;-36
2023/10/28 00:47:56;;;;;;;12.10;3.10;;;;;;;14.75;81.53;96449.77;107128;1256;72664;-36
2023/10/28 00:50:24;;;;;;;7.60;3.50;;;;;;;14.79;81.28;96448.35;107052;1256;60694;-36
2023/10/28 00:52:54;;;;;;;8.20;3.40;;;;;;;14.79;81.09;96450.97;107071;1256;59532;-36
2023/10/28 00:55:23;;;;;;;9.50;3.70;;;;;;;14.77;81.27;96444.30;107088;1256;72329;-36
2023/10/28 00:57:51;;;;;;;7.80;3.10;;;;;;;14.74;81.43;96436.24;107211;1257;67120;-36
2023/10/28 01:00:20;;;;;;;9.80;3.00;;;;;;;14.76;81.22;96433.36;107109;1256;71454;-35
2023/10/28 01:02:49;;;;;;;10.40;3.20;;;;;;;14.80;80.96;96425.30;107219;1257;60031;-35
2023/10/28 01:05:17;;;;;;;8.40;3.40;;;;;;;14.81;80.83;96425.90;107298;1257;59576;-35
2023/10/28 01:07:49;;;;;;;9.00;3.40;;;;;;;14.79;80.95;96424.33;107199;1257;71858;-36
2023/10/28 01:10:30;;;;;;;6.40;2.80;;;;;;;14.80;80.89;96429.05;107133;1257;66795;-35
2023/10/28 01:13:04;;;;;;;8.70;3.20;;;;;;;14.86;80.54;96425.44;107126;1259;73100;-36
2023/10/28 01:15:31;;;;;;;13.90;3.60;;;;;;;14.87;80.39;96423.66;107098;1259;59895;-35
2023/10/28 01:17:59;;;;;;;10.30;3.90;;;;;;;14.85;80.42;96422.05;107038;1258;59485;-35
2023/10/28 01:20:27;;;;;;;8.30;3.30;;;;;;;14.83;80.65;96415.19;107044;1259;73149;-35
2023/10/28 01:22:54;;;;;;;6.40;3.00;;;;;;;14.86;80.42;96420.04;107039;1259;67681;-36
2023/10/28 01:25:22;;;;;;;8.30;3.30;;;;;;;14.90;80.36;96421.21;107044;1259;72712;-35
2023/10/28 01:27:50;;;;;;;8.90;3.50;;;;;;;14.88;80.21;96415.42;107024;1259;60171;-35
2023/10/28 01:30:18;;;;;;;11.10;3.70;;;;;;;14.87;80.41;96409.41;107038;1259;59309;-35
2023/10/28 01:32:46;;;;;;;8.70;3.10;;;;;;;14.90;80.33;96404.59;106918;1258;73086;-35
2023/10/28 01:35:13;;;;;;;9.00;2.90;;;;;;;14.94;80.04;96397.23;107062;1258;67925;-35
2023/10/28 01:37:42;;;;;;;6.20;2.90;;;;;;;14.94;79.77;96399.56;106970;1259;72786;-36
2023/10/28 01:40:13;;;;;;;10.20;3.00;;;;;;;14.93;79.77;96399.62;107139;1260;60060;-36
2023/10/28 01:42:44;;;;;;;6.50;3.00;;;;;;;14.93;79.79;96396.95;106962;1259;60035;-36
2023/10/28 01:45:15;;;;;;;4.80;2.70;;;;;;;14.98;79.60;96391.27;107091;1259;71872;-36
2023/10/28 01:47:43;;;;;;;;;;;;;;;15.00;79.28;96389.87;107080;1259;66656;-36
2023/10/28 01:50:11;;;;;;;5.90;2.20;;;;;;;14.99;79.28;96381.72;106987;1259;73135;-35
2023/10/28 01:52:40;;;;;;;4.80;2.60;;;;;;;14.96;78.85;96386.70;107094;1263;60087;-35
2023/10/28 01:55:09;;;;;;;4.30;1.80;;;;;;;14.97;77.60;96384.05;106951;1259;59569;-35
2023/10/28 01:57:37;;;;;;;4.00;2.10;;;;;;;15.07;76.62;96375.98;106943;1259;73034;-36
2023/10/28 02:00:07;;;;;;;5.70;2.00;;;;;;;15.12;75.65;96367.23;106904;1259;67683;-36
2023/10/28 02:02:39;;;;;;;5.70;1.60;;;;;;;15.14;75.30;96364.71;106906;1261;71418;-36
2023/10/28 02:05:08;;;;;;;4.50;1.50;;;;;;;15.17;75.10;96358.41;107025;1259;61693;-36
2023/10/28 02:07:36;;;;;;;6.70;1.60;;;;;;;15.24;75.11;96352.31;107044;1256;60062;-36
2023/10/28 02:10:05;;;;;;;4.90;1.60;;;;;;;15.28;72.72;96363.40;107131;1256;73027;-36
2023/10/28 02:12:34;;;;;;;6.60;1.50;;;;;;;15.27;71.66;96353.97;107230;1262;67629;-35
2023/10/28 02:15:04;;;;;;;6.10;1.00;;;;;;;15.26;70.68;96367.84;107061;1259;71443;-36
2023/10/28 02:17:31;;;;;;;3.00;0.50;;;;;;;15.17;69.42;96367.84;107084;1256;59628;-36
2023/10/28 02:19:59;;;;;;;3.10;1.00;;;;;;;15.08;67.92;96377.06;107062;1256;60258;-36
2023/10/28 02:22:26;;;;;;;2.30;0.80;;;;;;;15.03;68.25;96382.73;107071;1256;73055;-36
2023/10/28 02:24:54;;;;;;;4.20;0.60;;;;;;;14.86;66.86;96401.09;107115;1256;66384;-36
2023/10/28 02:27:21;;;;;;;5.60;0.30;;;;;;;14.67;65.95;96413.33;107075;1261;72687;-36
2023/10/28 02:29:49;;;;;;;3.60;0.40;;;;;;;14.50;65.51;96400.63;107377;1253;60393;-36
2023/10/28 02:32:17;;;;;;;2.30;0.40;;;;;;;14.34;65.38;96401.23;107561;1258;60392;-36
2023/10/28 02:34:45;;;;;;;4.70;0.30;;;;;;;14.19;65.83;96408.61;107405;1253;73888;-36
2023/10/28 02:37:14;;;;;;;2.30;0.30;;;;;;;14.10;65.56;96410.64;107372;1258;66628;-36
2023/10/28 02:39:42;;;;;;;0.30;0.20;;;;;;;14.00;65.99;96399.42;107404;1253;72718;-36
2023/10/28 02:42:09;;;;;;;2.00;0.20;;;;;;;13.88;66.57;96400.45;107315;1253;60400;-36
2023/10/28 02:44:37;;;;;;;1.60;0.30;;;;;;;13.78;66.76;96397.54;107387;1253;60317;-36
2023/10/28 02:47:04;;;;;;;1.80;0.40;;;;;;;13.71;66.67;96388.94;107404;1253;74210;-36
2023/10/28 02:49:36;;;;;;;1.20;0.30;;;;;;;13.73;67.01;96383.27;107595;1253;67572;-36
2023/10/28 02:52:05;;;;;;;2.50;0.40;;;;;;;13.68;67.46;96377.66;107429;1253;71433;-36
2023/10/28 02:54:34;;;;;;;2.80;0.30;;;;;;;13.61;67.78;96381.21;107612;1253;60535;-36
2023/10/28 02:57:01;;;;;;;2.90;0.30;;;;;;;13.54;68.16;96370.13;107400;1253;60286;-36
2023/10/28 02:59:29;;;;;;;2.40;0.50;;;;;;;13.53;67.70;96372.58;107382;1253;72860;-36
2023/10/28 03:01:57;;;;;;;2.40;0.40;;;;;;;13.53;67.67;96363.66;107402;1253;66627;-36
2023/10/28 03:04:25;;;;;;;0.30;0.20;;;;;;;13.50;68.12;96353.50;107383;1253;71905;-36
2023/10/28 03:06:53;;;;;;;0.70;0.10;;;;;;;13.44;68.05;96360.25;107384;1258;60369;-36
2023/10/28 03:09:20;;;;;;;3.70;0.20;;;;;;;13.40;67.70;96352.12;107366;1253;60502;-36
2023/10/28 03:11:48;;;;;;;3.10;0.30;;;;;;;13.45;68.22;96351.12;107435;1253;73997;-36
2023/10/28 03:14:15;;;;;;;1.40;0.20;;;;;;;13.44;67.98;96345.26;107378;1253;66321;-36
2023/10/28 03:16:46;;;;;;;0.90;0.40;;;;;;;13.39;68.05;96350.84;107423;1256;71095;-36
2023/10/28 03:19:13;;;;;;;4.50;0.40;;;;;;;13.34;68.41;96345.20;107370;1253;60389;-36
2023/10/28 03:21:41;;;;;;;2.80;0.30;;;;;;;13.34;68.47;96335.81;107384;1252;60437;-36
2023/10/28 03:24:09;;;;;;;1.80;0.50;;;;;;;13.36;68.35;96325.58;107403;1253;73875;-36
2023/10/28 03:26:36;;;;;;;1.70;0.40;;;;;;;13.32;68.51;96317.93;107610;1253;65695;-36
2023/10/28 03:29:05;;;;;;;1.80;0.40;;;;;;;13.25;68.32;96325.27;107424;1253;70510;-36
2023/10/28 03:31:34;;;;;;;0.30;0.30;;;;;;;13.21;68.57;96328.46;107348;1256;61673;-36
2023/10/28 03:34:02;;;;;;;2.40;0.30;;;;;;;13.24;68.47;96327.90;107468;1252;60367;-36
2023/10/28 03:36:29;;;;;;;0.50;0.20;;;;;;;13.22;68.50;96315.15;107616;1252;73867;-36
2023/10/28 03:38:58;;;;;;;13.90;0.70;;;;;;;13.16;68.72;96310.71;107437;1253;66295;-36
2023/10/28 03:41:26;;;;;;;2.90;0.30;;;;;;;13.09;68.72;96298.39;107381;1254;72681;-36
2023/10/28 03:43:53;;;;;;;3.30;0.50;;;;;;;13.07;68.72;96295.58;107357;1253;61699;-36
2023/10/28 03:46:21;;;;;;;3.60;0.20;;;;;;;13.05;68.55;96295.19;107414;1253;60284;-36
2023/10/28 03:48:50;;;;;;;3.30;0.30;;;;;;;13.00;68.80;96290.36;107388;1252;73911;-36
2023/10/28 03:51:17;;;;;;;3.60;0.40;;;;;;;12.93;68.94;96296.14;107384;1253;67583;-36
2023/10/28 03:53:45;;;;;;;5.30;0.50;;;;;;;12.87;69.46;96281.00;107390;1254;71424;-36
2023/10/28 03:56:13;;;;;;;0.80;0.20;;;;;;;12.86;69.62;96272.89;107405;1255;60381;-36
2023/10/28 03:58:42;;;;;;;3.50;0.40;;;;;;;12.80;69.89;96272.42;107391;1255;60156;-36
2023/10/28 04:01:10;;;;;;;3.90;0.30;;;;;;;12.73;69.74;96270.01;107385;1253;73877;-36
2023/10/28 04:03:37;;;;;;;3.50;0.30;;;;;;;12.69;70.07;96265.10;107368;1253;66658;-36
2023/10/28 04:06:05;;;;;;;3.40;0.20;;;;;;;12.71;69.86;96255.33;107402;1256;73123;-36
2023/10/28 04:08:34;;;;;;;7.70;0.60;;;;;;;12.70;70.08;96247.67;107374;1254;60240;-36
2023/10/28 04:11:03;;;;;;;5.50;0.60;;;;;;;12.64;70.12;96238.72;107547;1253;60107;-36
2023/10/28 04:13:32;;;;;;;2.50;0.30;;;;;;;12.62;70.52;96235.86;107404;1253;73916;-36
2023/10/28 04:15:59;;;;;;;4.00;0.30;;;;;;;12.65;70.57;96229.13;107444;1253;67202;-36
2023/10/28 04:18:27;;;;;;;3.20;0.50;;;;;;;12.65;70.55;96222.00;107439;1258;72729;-36
2023/10/28 04:20:55;;;;;;;2.40;0.40;;;;;;;12.59;70.77;96216.94;107404;1256;60415;-36
2023/10/28 04:23:23;;;;;;;3.70;0.30;;;;;;;12.56;71.40;96206.90;107371;1258;59247;-36
2023/10/28 04:25:52;;;;;;;1.90;0.40;;;;;;;12.58;71.97;96229.20;107369;1254;73840;-36
2023/10/28 04:28:20;;;;;;;3.40;0.50;;;;;;;12.55;72.44;96217.84;107418;1253;67583;-36
2023/10/28 04:31:00;;;;;;;3.40;1.00;;;;;;;12.46;72.82;96236.64;107394;1257;70707;-36
2023/10/28 04:33:27;;;;;;;1.10;0.30;;;;;;;12.40;73.65;96205.81;107404;1253;60798;-36
2023/10/28 04:35:55;;;;;;;1.40;0.40;;;;;;;12.38;74.55;96219.98;107441;1253;60323;-36
2023/10/28 04:38:23;;;;;;;3.20;0.50;;;;;;;12.26;75.74;96229.83;107601;1252;73798;-36
2023/10/28 04:40:51;;;;;;;1.10;0.50;;;;;;;12.12;77.08;96232.60;107396;1257;67590;-36
2023/10/28 04:43:19;;;;;;;1.20;0.30;;;;;;;12.04;78.08;96224.66;107431;1253;72748;-36
2023/10/28 04:45:48;;;;;;;3.70;0.50;;;;;;;11.92;79.30;96226.45;107438;1253;60417;-36
2023/10/28 04:48:16;;;;;;;0.20;0.20;;;;;;;11.74;81.05;96225.30;107401;1253;60422;-36
2023/10/28 04:50:48;;;;;;;1.10;0.40;;;;;;;11.57;82.59;96220.22;107488;1258;73829;-36
2023/10/28 04:53:16;;;;;;;2.80;0.50;;;;;;;11.41;83.43;96223.48;107444;1257;67924;-36
2023/10/28 04:55:44;;;;;;;1.10;0.40;;;;;;;11.25;85.05;96248.05;107451;1253;72652;-36
2023/10/28 04:58:12;;;;;;;1.30;0.30;;;;;;;11.08;85.85;96242.52;107386;1258;60315;-36
2023/10/28 05:00:40;;;;;;;2.80;1.00;;;;;;;10.94;86.75;96226.17;107448;1253;60346;-36
2023/10/28 05:03:08;;;;;;;1.40;0.30;;;;;;;10.84;87.65;96242.35;107534;1253;73860;-36
2023/10/28 05:05:37;;;;;;;3.20;0.70;;;;;;;10.77;88.76;96254.19;107444;1253;67915;-36
2023/10/28 05:08:05;;;;;;;3.00;0.60;;;;;;;10.63;89.10;96254.70;107416;1254;72744;-36
2023/10/28 05:10:33;;;;;;;1.70;0.40;;;;;;;10.53;89.58;96275.17;107385;1257;62245;-36
2023/10/28 05:13:00;;;;;;;1.30;0.50;;;;;;;10.43;90.36;96289.92;107418;1254;60116;-36
2023/10/28 05:15:28;;;;;;;3.00;0.60;;;;;;;10.34;91.27;96279.35;107449;1252;73905;-36
2023/10/28 12:29:19;;;;;;;1.00;0.90;;;;;;;14.66;56.43;97673.86;105189;1283;613554;-36
2023/10/28 12:31:46;;;;;;;3.40;0.90;;;;;;;14.61;55.38;97693.34;106436;1264;190907;-36
2023/10/28 12:34:14;;;;;;;1.90;0.90;;;;;;;14.14;56.34;97692.23;106651;1264;60039;-36
2023/10/28 12:36:43;;;;;;;1.00;0.80;;;;;;;13.70;57.75;97706.02;106789;1269;70898;-36
2023/10/28 12:39:10;;;;;;;0.90;0.80;;;;;;;13.34;58.96;97716.27;106766;1264;66756;-36
2023/10/28 12:41:38;;;;;;;0.80;0.80;;;;;;;13.06;59.65;97717.06;106746;1264;72712;-36
2023/10/28 12:44:06;;;;;;;1.10;0.90;;;;;;;12.87;60.23;97721.05;106745;1264;61691;-36
2023/10/28 12:46:34;;;;;;;2.30;0.80;;;;;;;12.80;59.33;97719.06;106768;1264;60056;-36
2023/10/28 12:49:02;;;;;;;1.40;1.10;;;;;;;12.81;58.84;97718.81;106741;1264;70990;-36
2023/10/28 12:51:30;;;;;;;1.00;0.90;;;;;;;13.06;59.07;97724.45;106758;1264;67753;-36
2023/10/28 12:53:59;;;;;;;1.30;0.90;;;;;;;13.55;57.99;97727.47;106769;1264;71422;-36
2023/10/28 12:56:28;;;;;;;4.30;0.90;;;;;;;13.87;55.47;97728.30;106705;1266;60026;-37
2023/10/28 12:58:56;;;;;;;1.10;1.00;;;;;;;13.79;55.61;97740.83;106637;1264;60031;-37
2023/10/28 13:01:27;;;;;;;2.90;1.00;;;;;;;13.54;56.23;97755.33;106660;1264;73070;-36
2023/10/28 13:03:56;;;;;;;2.40;1.10;;;;;;;13.25;57.35;97763.95;106693;1264;66850;-36
2023/10/28 13:06:25;;;;;;;1.80;1.00;;;;;;;13.04;57.74;97765.76;106803;1264;71711;-37
2023/10/28 13:08:53;;;;;;;1.60;1.20;;;;;;;12.88;57.64;97775.42;106642;1265;59637;-36
2023/10/28 13:11:20;;;;;;;2.70;1.20;;;;;;;12.76;57.68;97779.80;106660;1269;59538;-37
2023/10/28 13:13:48;;;;;;;1.90;1.30;;;;;;;12.75;57.82;97786.19;106706;1264;73080;-37
2023/10/28 13:16:16;;;;;;;2.00;1.10;;;;;;;12.88;57.53;97791.44;106757;1264;66459;-37
2023/10/28 13:18:43;;;;;;;1.30;1.20;;;;;;;13.17;57.72;97795.02;107201;1257;72747;-37
2023/10/28 13:21:13;;;;;;;1.30;1.20;;;;;;;13.38;57.13;97799.32;107273;1257;59620;-37
2023/10/28 13:23:41;;;;;;;1.90;1.20;;;;;;;13.40;57.44;97808.08;107241;1257;59469;-37
2023/10/28 13:26:12;;;;;;;1.70;1.30;;;;;;;13.25;57.70;97819.93;107226;1257;73057;-37
2023/10/28 13:28:42;;;;;;;2.10;1.10;;;;;;;12.99;58.48;97819.91;107255;1257;67878;-37
2023/10/28 13:31:10;;;;;;;2.90;1.40;;;;;;;12.77;59.51;97827.33;107250;1257;72682;-37
2023/10/28 13:33:38;;;;;;;1.30;1.10;;;;;;;12.61;60.57;97839.05;107004;1257;61721;-36
2023/10/28 13:36:08;;;;;;;2.00;1.40;;;;;;;12.57;60.81;97836.16;107216;1257;60077;-36
2023/10/28 13:38:35;;;;;;;1.40;1.10;;;;;;;12.57;60.85;97842.69;107256;1257;73083;-37
2023/10/28 13:41:03;;;;;;;2.50;1.30;;;;;;;12.54;60.23;97846.23;107241;1258;65424;-37
2023/10/28 13:43:31;;;;;;;1.50;1.10;;;;;;;12.50;60.53;97858.16;107238;1257;72690;-37
2023/10/28 13:46:00;;;;;;;2.00;1.40;;;;;;;12.43;60.68;97863.75;107179;1257;60071;-37
2023/10/28 13:48:27;;;;;;;2.10;1.10;;;;;;;12.34;60.94;97869.54;107257;1257;59535;-37
2023/10/28 13:50:58;;;;;;;2.00;1.40;;;;;;;12.25;60.81;97873.36;107209;1258;73063;-37
2023/10/28 13:53:26;;;;;;;;;;;;;;;12.14;60.70;97873.73;107211;1257;68722;-37
2023/10/28 13:56:00;;;;;;;1.40;1.10;;;;;;;12.02;60.84;97880.15;107215;1262;72686;-37
2023/10/28 13:58:28;;;;;;;1.80;1.10;;;;;;;11.93;61.28;97889.25;107165;1262;60175;-37
2023/10/28 14:01:07;;;;;;;2.90;1.70;;;;;;;11.85;61.34;97894.45;107021;1263;59624;-37
2023/10/28 14:03:35;;;;;;;1.30;1.20;;;;;;;11.78;61.50;97902.35;107042;1257;73128;-36
2023/10/28 14:06:05;;;;;;;1.60;1.50;;;;;;;11.78;61.63;97908.94;107122;1258;67898;-36
2023/10/28 14:08:32;;;;;;;6.00;1.40;;;;;;;11.75;61.52;97914.23;107270;1257;72853;-36
2023/10/28 14:11:00;;;;;;;2.10;1.50;;;;;;;11.67;61.59;97916.77;107205;1257;59602;-37
2023/10/28 14:13:29;;;;;;;3.60;1.40;;;;;;;11.59;62.07;97925.14;107231;1257;60093;-37
2023/10/28 14:15:57;;;;;;;1.50;1.40;;;;;;;11.53;62.64;97928.60;107101;1260;71753;-37
2023/10/28 14:18:25;;;;;;;1.80;1.60;;;;;;;11.47;63.06;97937.17;107104;1263;67565;-37
2023/10/28 14:20:53;;;;;;;1.40;1.30;;;;;;;11.40;63.36;97936.14;107186;1258;71504;-37
2023/10/28 14:23:22;;;;;;;1.30;1.20;;;;;;;11.41;63.76;97937.14;107081;1260;60820;-37
2023/10/28 14:25:50;;;;;;;2.40;1.40;;;;;;;11.43;63.68;97937.67;107086;1263;60034;-36
2023/10/28 14:28:18;;;;;;;2.00;1.60;;;;;;;11.41;63.92;97948.00;107169;1257;73061;-37
2023/10/28 14:30:46;;;;;;;1.70;1.40;;;;;;;11.35;64.20;97944.46;107119;1262;67881;-37
2023/10/28 14:33:15;;;;;;;1.80;1.30;;;;;;;11.29;64.53;97954.73;107185;1257;71879;-36
2023/10/28 14:35:43;;;;;;;1.70;1.60;;;;;;;11.21;64.72;97961.30;107087;1259;60081;-37
2023/10/28 14:38:10;;;;;;;2.20;1.70;;;;;;;11.16;65.02;97971.64;107083;1257;60078;-36
2023/10/28 14:40:38;;;;;;;1.90;1.50;;;;;;;11.13;65.43;97979.34;107105;1257;73107;-37
2023/10/28 14:43:06;;;;;;;1.40;1.20;;;;;;;11.16;65.48;97982.73;107108;1257;67563;-37
2023/10/28 14:45:33;;;;;;;1.80;1.50;;;;;;;11.17;65.33;97992.96;107097;1257;71397;-37
2023/10/28 14:48:01;;;;;;;1.80;1.40;;;;;;;11.16;65.34;97993.27;107068;1260;60371;-36
2023/10/28 14:50:28;;;;;;;2.20;1.60;;;;;;;11.15;65.54;98001.25;107058;1257;60048;-36
2023/10/28 14:52:56;;;;;;;2.10;1.60;;;;;;;11.14;65.66;97998.23;107001;1258;73662;-36
2023/10/28 14:55:23;;;;;;;1.70;1.50;;;;;;;11.13;65.52;97999.42;107050;1258;66304;-37
2023/10/28 14:57:52;;;;;;;1.90;1.60;;;;;;;11.12;65.70;98006.09;107026;1257;71392;-36
2023/10/28 15:00:40;;;;;;;2.60;1.70;;;;;;;11.17;65.79;98010.33;107075;1262;61774;-36
2023/10/28 15:03:08;;;;;;;1.40;1.30;;;;;;;11.21;65.80;98013.23;107097;1263;59970;-36
2023/10/28 15:05:41;;;;;;;1.90;1.30;;;;;;;11.21;65.70;98014.70;107106;1257;73076;-37
2023/10/28 15:08:12;;;;;;;2.50;1.50;;;;;;;11.19;65.75;98017.20;107067;1257;66312;-37
2023/10/28 15:10:40;;;;;;;1.50;1.40;;;;;;;11.17;65.86;98021.79;107065;1257;72670;-37
2023/10/28 15:13:08;;;;;;;3.70;1.60;;;;;;;11.15;66.07;98032.10;107043;1259;59640;-37
2023/10/28 15:15:36;;;;;;;1.90;1.60;;;;;;;11.13;66.07;98039.48;107035;1257;59513;-37
2023/10/28 15:18:05;;;;;;;1.50;1.30;;;;;;;11.15;65.94;98040.86;107064;1257;73078;-37
2023/10/28 15:20:33;;;;;;;1.80;1.50;;;;;;;11.20;66.01;98044.48;107109;1260;67856;-37
2023/10/28 15:23:01;;;;;;;2.10;1.50;;;;;;;11.20;65.94;98046.73;107043;1262;71480;-37
2023/10/28 15:25:30;;;;;;;1.70;1.50;;;;;;;11.17;65.98;98053.25;107047;1257;59472;-36
2023/10/28 15:27:58;;;;;;;3.20;1.50;;;;;;;11.15;66.10;98047.91;107092;1258;59516;-36
2023/10/28 15:30:25;;;;;;;4.90;1.90;;;;;;;11.12;66.08;98058.23;107171;1257;73092;-37
2023/10/28 15:32:53;;;;;;;2.10;1.70;;;;;;;11.09;66.27;98059.33;107204;1261;66622;-36
2023/10/28 15:35:21;;;;;;;2.60;1.70;;;;;;;11.11;66.39;98064.58;107215;1257;72691;-37
2023/10/28 15:37:50;;;;;;;5.70;1.70;;;;;;;11.16;66.29;98065.96;107225;1257;59983;-36
2023/10/28 15:40:19;;;;;;;1.90;1.60;;;;;;;11.15;66.03;98072.01;107237;1257;60130;-37
2023/10/28 15:42:47;;;;;;;2.00;1.60;;;;;;;11.14;66.29;98075.89;107301;1257;73169;-36
2023/10/28 15:45:14;;;;;;;1.60;1.50;;;;;;;11.12;66.45;98080.40;107270;1257;67582;-37
2023/10/28 15:47:42;;;;;;;2.00;1.70;;;;;;;11.11;66.59;98084.11;107207;1257;72472;-37
2023/10/28 15:50:10;;;;;;;2.40;1.70;;;;;;;11.08;66.77;98088.77;107193;1257;61729;-36
2023/10/28 15:52:38;;;;;;;2.70;1.60;;;;;;;11.10;66.95;98089.39;107272;1257;60122;-36
2023/10/28 15:55:08;;;;;;;2.60;2.00;;;;;;;11.12;67.19;98090.39;107135;1257;71770;-37
2023/10/28 15:57:35;;;;;;;3.30;2.00;;;;;;;11.09;67.55;98102.49;107124;1257;66656;-36
2023/10/28 16:00:06;;;;;;;4.70;2.40;;;;;;;11.04;67.91;98106.14;107106;1257;71360;-37
2023/10/28 16:02:33;;;;;;;3.80;2.60;;;;;;;11.00;68.59;98115.54;107138;1257;59348;-36
2023/10/28 16:05:01;;;;;;;3.40;2.60;;;;;;;10.96;69.47;98119.58;107068;1262;59237;-36
2023/10/28 16:07:29;;;;;;;4.60;2.90;;;;;;;10.97;70.12;98119.04;107165;1257;73135;-37
2023/10/28 16:09:57;;;;;;;4.60;3.50;;;;;;;11.01;70.68;98118.48;107235;1257;68037;-37
2023/10/28 16:12:25;;;;;;;6.20;3.80;;;;;;;10.99;71.16;98120.50;107112;1259;71496;-36
2023/10/28 16:14:53;;;;;;;5.40;3.50;;;;;;;10.96;71.55;98125.77;107115;1257;59362;-37
2023/10/28 16:17:20;;;;;;;5.80;4.00;;;;;;;10.93;71.99;98130.20;107194;1258;60279;-37
2023/10/28 16:19:48;;;;;;;5.50;3.50;;;;;;;10.92;72.39;98130.90;107151;1257;73013;-37
2023/10/28 16:22:17;;;;;;;6.30;3.40;;;;;;;10.98;72.54;98137.70;107180;1257;68104;-37
2023/10/28 16:24:45;;;;;;;4.50;3.30;;;;;;;11.03;72.53;98140.09;107124;1257;72751;-37
2023/10/28 16:27:14;;;;;;;4.20;3.30;;;;;;;11.04;72.66;98145.73;107124;1257;59224;-37
2023/10/28 16:29:42;;;;;;;6.20;3.90;;;;;;;11.02;72.80;98153.81;107234;1256;59533;-37
2023/10/28 16:32:10;;;;;;;5.70;3.40;;;;;;;10.99;73.09;98157.15;107250;1257;73121;-37
2023/10/28 16:34:38;;;;;;;5.50;3.70;;;;;;;11.00;73.05;98165.36;107238;1256;67026;-36
2023/10/28 16:37:05;;;;;;;4.80;3.50;;;;;;;11.04;73.10;98168.84;107218;1257;71467;-36
2023/10/28 16:39:33;;;;;;;5.50;3.60;;;;;;;11.06;73.22;98171.46;107259;1257;60418;-36
2023/10/28 16:42:00;;;;;;;3.80;3.30;;;;;;;11.03;73.46;98174.56;107238;1257;60421;-36
2023/10/28 16:44:28;;;;;;;5.50;3.10;;;;;;;10.98;73.63;98174.05;107255;1257;73928;-36
2023/10/28 16:46:56;;;;;;;3.40;2.90;;;;;;;10.97;73.76;98176.06;107240;1256;68044;-37
2023/10/28 16:49:23;;;;;;;4.10;3.00;;;;;;;10.99;73.78;98181.95;107212;1257;71506;-37
2023/10/28 16:51:51;;;;;;;6.50;3.50;;;;;;;10.94;74.06;98188.22;107229;1256;60395;-37
2023/10/28 16:54:18;;;;;;;4.40;3.30;;;;;;;10.86;74.49;98193.27;107243;1257;60145;-37
2023/10/28 16:56:48;;;;;;;4.60;3.10;;;;;;;10.81;74.59;98200.63;107206;1258;73024;-36
2023/10/28 16:59:16;;;;;;;4.00;2.90;;;;;;;10.81;74.80;98202.88;107248;1257;65713;-36
2023/10/28 17:01:45;;;;;;;6.10;3.20;;;;;;;10.82;74.91;98209.39;107215;1261;72759;-36
2023/10/28 17:04:13;;;;;;;3.70;2.90;;;;;;;10.77;75.01;98213.81;107230;1256;60372;-37
2023/10/28 17:06:41;;;;;;;4.00;3.40;;;;;;;10.70;75.30;98218.15;107166;1262;60289;-37
2023/10/28 17:09:08;;;;;;;4.30;2.70;;;;;;;10.65;75.68;98223.09;107090;1257;73845;-37
2023/10/28 17:11:36;;;;;;;5.50;3.10;;;;;;;10.65;75.91;98228.76;107081;1257;67728;-36
2023/10/28 17:14:03;;;;;;;3.70;2.80;;;;;;;10.65;75.94;98231.53;107086;1257;72845;-36
2023/10/28 17:16:31;;;;;;;3.20;2.90;;;;;;;10.61;76.14;98232.16;107105;1257;59236;-36
2023/10/28 17:19:02;;;;;;;5.40;3.80;;;;;;;10.56;76.54;98234.71;107196;1255;60332;-37
2023/10/28 17:21:30;;;;;;;5.00;3.30;;;;;;;10.54;76.73;98237.35;107211;1257;73949;-37
2023/10/28 17:23:58;;;;;;;6.10;3.20;;;;;;;10.58;76.92;98237.96;107524;1254;66429;-36
2023/10/28 17:26:27;;;;;;;3.80;3.30;;;;;;;10.59;77.18;98239.45;107602;1253;71359;-36
2023/10/28 17:28:54;;;;;;;6.20;3.80;;;;;;;10.55;77.33;98240.52;107493;1259;60530;-37
2023/10/28 17:31:22;;;;;;;4.30;3.60;;;;;;;10.53;77.47;98240.59;107512;1254;60261;-37
2023/10/28 17:33:50;;;;;;;3.70;3.10;;;;;;;10.57;77.28;98246.17;107486;1253;73922;-37
2023/10/28 17:36:17;;;;;;;4.80;3.00;;;;;;;10.61;76.51;98251.90;107487;1254;67820;-37
2023/10/28 17:38:46;;;;;;;2.70;2.40;;;;;;;10.61;75.31;98248.73;107358;1253;72735;-37
2023/10/28 17:41:15;;;;;;;3.30;2.80;;;;;;;10.62;75.33;98254.15;107513;1254;60434;-37
2023/10/28 17:43:49;;;;;;;3.40;3.00;;;;;;;10.64;75.52;98252.37;107511;1252;60591;-37
2023/10/28 17:46:17;;;;;;;3.40;2.90;;;;;;;10.71;75.63;98260.20;107506;1253;72632;-37
2023/10/28 17:48:45;;;;;;;4.10;3.00;;;;;;;10.74;75.48;98266.40;107525;1253;67248;-37
2023/10/28 17:51:13;;;;;;;5.50;2.80;;;;;;;10.73;75.55;98270.20;107479;1254;71433;-37
2023/10/28 17:53:42;;;;;;;3.30;2.70;;;;;;;10.73;75.53;98271.89;107499;1254;60866;-37
2023/10/28 17:56:10;;;;;;;4.40;2.80;;;;;;;10.74;75.29;98280.95;107546;1253;60386;-37
2023/10/28 17:58:40;;;;;;;2.70;2.40;;;;;;;10.81;75.14;98278.40;107523;1254;72643;-37
2023/10/28 18:01:07;;;;;;;5.50;2.40;;;;;;;10.82;74.53;98280.35;107564;1259;65435;-38
2023/10/28 18:03:35;;;;;;;3.40;2.60;;;;;;;10.82;74.50;98278.87;107498;1254;72613;-38
2023/10/28 18:06:04;;;;;;;2.30;2.00;;;;;;;10.81;74.42;98280.27;107441;1254;60415;-38
2023/10/28 18:08:33;;;;;;;2.40;2.20;;;;;;;10.86;74.22;98285.06;107387;1252;60123;-38
2023/10/28 18:11:01;;;;;;;3.30;2.50;;;;;;;10.94;73.76;98281.90;107364;1254;73863;-38
2023/10/28 18:13:29;;;;;;;3.00;2.50;;;;;;;10.96;73.67;98289.10;107573;1254;68072;-38
2023/10/28 18:15:56;;;;;;;4.10;2.60;;;;;;;10.95;73.46;98293.75;107504;1254;71438;-38
2023/10/28 18:18:26;;;;;;;2.60;2.40;;;;;;;10.92;73.11;98297.31;107420;1254;60840;-38
2023/10/28 18:20:54;;;;;;;3.00;2.40;;;;;;;10.89;73.06;98302.42;107404;1259;60190;-38
2023/10/28 18:23:27;;;;;;;2.90;2.40;;;;;;;10.93;72.90;98293.98;107441;1254;72648;-38
2023/10/28 18:25:55;;;;;;;3.60;2.10;;;;;;;10.96;72.86;98304.98;107555;1254;66922;-38
2023/10/28 18:28:23;;;;;;;2.80;2.20;;;;;;;10.92;72.84;98306.30;107477;1254;72750;-38
2023/10/28 18:30:50;;;;;;;3.10;2.30;;;;;;;10.88;72.94;98313.66;107499;1259;60300;-38
2023/10/28 18:33:18;;;;;;;5.10;2.30;;;;;;;10.85;73.07;98316.28;107477;1253;60479;-38
2023/10/28 18:35:47;;;;;;;2.70;2.40;;;;;;;10.87;72.90;98319.55;107443;1254;73434;-38
2023/10/28 18:38:16;;;;;;;2.70;2.30;;;;;;;10.89;72.76;98324.27;107432;1254;67554;-37
2023/10/28 18:40:43;;;;;;;3.30;2.80;;;;;;;10.86;72.58;98327.36;107437;1259;71450;-37